createdAt,value
2019-02-23T00:00:17.902Z,64.3
2019-02-23T00:01:18.626Z,64.9
2019-02-23T00:02:19.338Z,65.2
2019-02-23T00:03:20.084Z,65.9
2019-02-23T00:04:20.793Z,66.2
2019-02-23T00:05:21.521Z,65.9
2019-02-23T00:06:29.767Z,65.9
2019-02-23T00:07:23.006Z,66.2
2019-02-23T00:08:23.959Z,65.8
2019-02-23T00:09:24.675Z,66.1
2019-02-23T00:10:25.634Z,66.2
2019-02-23T00:11:26.335Z,66.8
2019-02-23T00:12:27.051Z,66.5
2019-02-23T00:13:27.784Z,67.4
2019-02-23T00:14:28.497Z,67.1
2019-02-23T00:15:29.206Z,67.4
2019-02-23T00:16:29.920Z,67.4
2019-02-23T00:17:30.726Z,67.8
2019-02-23T00:18:31.656Z,67.6
2019-02-23T00:19:32.372Z,69.4
2019-02-23T00:20:33.472Z,69.3
2019-02-23T00:21:34.299Z,69.1
2019-02-23T00:22:35.006Z,68.7
2019-02-23T00:23:35.868Z,69.0
2019-02-23T00:24:36.576Z,69.1
2019-02-23T00:25:37.296Z,70.1
2019-02-23T00:26:38.005Z,70.0
2019-02-23T00:27:38.731Z,71.5
2019-02-23T00:28:39.542Z,70.7
2019-02-23T00:29:40.257Z,70.4
2019-02-23T00:30:40.977Z,70.2
2019-02-23T00:31:41.721Z,70.8
2019-02-23T00:32:42.436Z,70.7
2019-02-23T00:33:43.148Z,71.0
2019-02-23T00:34:43.868Z,71.4
2019-02-23T00:35:44.588Z,71.3
2019-02-23T00:36:45.303Z,70.4
2019-02-23T00:37:46.014Z,69.1
2019-02-23T00:38:46.742Z,70.2
2019-02-23T00:39:47.460Z,69.6
2019-02-23T00:40:48.186Z,71.5
2019-02-23T00:41:48.902Z,72.2
2019-02-23T00:42:49.610Z,71.1
2019-02-23T00:43:50.600Z,71.0
2019-02-23T00:44:51.353Z,70.9
2019-02-23T00:45:52.054Z,71.4
2019-02-23T00:46:52.770Z,74.1
2019-02-23T00:47:53.476Z,73.1
2019-02-23T00:48:54.186Z,73.0
2019-02-23T00:49:54.911Z,73.6
2019-02-23T00:50:55.622Z,73.5
2019-02-23T00:51:56.335Z,75.5
2019-02-23T00:52:57.044Z,75.6
2019-02-23T00:53:57.756Z,76.1
2019-02-23T00:54:58.472Z,75.5
2019-02-23T00:55:59.338Z,75.6
2019-02-23T00:57:00.035Z,74.4
2019-02-23T00:58:00.995Z,76.5
2019-02-23T00:59:01.708Z,75.6
2019-02-23T01:00:02.675Z,76.7
2019-02-23T01:01:03.439Z,77.5
2019-02-23T01:02:04.150Z,76.7
2019-02-23T01:03:04.858Z,76.2
2019-02-23T01:04:05.561Z,76.0
2019-02-23T01:05:06.279Z,78.2
2019-02-23T01:06:07.002Z,78.6
2019-02-23T01:07:07.713Z,81.4
2019-02-23T01:08:08.430Z,81.8
2019-02-23T01:09:09.155Z,82.1
2019-02-23T01:10:09.868Z,85.0
2019-02-23T01:11:10.571Z,84.0
2019-02-23T01:12:11.284Z,85.1
2019-02-23T01:13:12.001Z,85.4
2019-02-23T01:14:12.714Z,84.7
2019-02-23T01:15:13.442Z,83.9
2019-02-23T01:16:14.149Z,85.5
2019-02-23T01:17:14.872Z,84.9
2019-02-23T01:18:15.576Z,85.4
2019-02-23T01:19:16.288Z,85.4
2019-02-23T01:20:17.002Z,84.9
2019-02-23T01:21:17.722Z,84.7
2019-02-23T01:22:18.429Z,85.3
2019-02-23T01:23:19.142Z,84.7
2019-02-23T01:24:19.852Z,83.9
2019-02-23T01:25:20.563Z,83.6
2019-02-23T01:26:21.515Z,84.1
2019-02-23T01:27:22.225Z,84.4
2019-02-23T01:28:22.938Z,84.4
2019-02-23T01:29:23.645Z,83.4
2019-02-23T01:30:24.360Z,83.3
2019-02-23T01:31:25.070Z,84.2
2019-02-23T01:32:25.823Z,82.7
2019-02-23T01:33:26.538Z,81.4
2019-02-23T01:34:27.249Z,80.7
2019-02-23T01:35:27.973Z,79.2
2019-02-23T01:36:28.687Z,78.0
2019-02-23T01:37:29.397Z,78.7
2019-02-23T01:38:30.112Z,76.2
2019-02-23T01:39:30.825Z,74.9
2019-02-23T01:40:31.541Z,74.3
2019-02-23T01:41:32.252Z,78.0
2019-02-23T01:42:33.122Z,78.7
2019-02-23T01:43:33.843Z,79.6
2019-02-23T01:44:34.557Z,87.1
2019-02-23T01:45:42.395Z,100.0
2019-02-23T01:46:35.984Z,100.0
2019-02-23T01:47:36.694Z,100.0
2019-02-23T01:48:37.412Z,100.0
2019-02-23T01:49:38.111Z,100.0
2019-02-23T01:50:39.068Z,100.0
2019-02-23T01:51:39.785Z,100.0
2019-02-23T01:52:40.497Z,100.0
2019-02-23T01:53:41.253Z,100.0
2019-02-23T01:54:42.215Z,100.0
2019-02-23T01:55:42.942Z,100.0
2019-02-23T01:56:43.650Z,100.0
2019-02-23T01:57:44.375Z,100.0
2019-02-23T01:58:45.078Z,100.0
2019-02-23T01:59:45.808Z,100.0
2019-02-23T02:00:46.524Z,100.0
2019-02-23T02:01:47.225Z,100.0
2019-02-23T02:02:47.937Z,100.0
2019-02-23T02:03:48.646Z,100.0
2019-02-23T02:04:49.354Z,100.0
2019-02-23T02:05:50.067Z,100.0
2019-02-23T02:06:50.774Z,100.0
2019-02-23T02:07:51.508Z,100.0
2019-02-23T02:08:52.211Z,100.0
2019-02-23T02:09:53.178Z,100.0
2019-02-23T02:10:53.893Z,100.0
2019-02-23T02:11:54.612Z,100.0
2019-02-23T02:12:55.323Z,100.0
2019-02-23T02:13:56.026Z,100.0
2019-02-23T02:14:56.746Z,100.0
2019-02-23T02:15:57.573Z,100.0
2019-02-23T02:16:58.290Z,100.0
2019-02-23T02:17:59.350Z,100.0
2019-02-23T02:19:00.102Z,100.0
2019-02-23T02:20:10.420Z,100.0
2019-02-23T02:21:01.524Z,100.0
2019-02-23T02:22:02.236Z,100.0
2019-02-23T02:23:02.971Z,100.0
2019-02-23T02:24:03.670Z,100.0
2019-02-23T02:25:04.631Z,100.0
2019-02-23T02:26:05.357Z,100.0
2019-02-23T02:27:06.064Z,100.0
2019-02-23T02:28:06.779Z,100.0
2019-02-23T02:29:07.488Z,100.0
2019-02-23T02:30:08.227Z,100.0
2019-02-23T02:31:08.928Z,100.0
2019-02-23T02:32:09.631Z,100.0
2019-02-23T02:33:10.396Z,100.0
2019-02-23T02:34:11.063Z,100.0
2019-02-23T02:35:11.780Z,100.0
2019-02-23T02:36:12.563Z,100.0
2019-02-23T02:37:13.273Z,100.0
2019-02-23T02:38:13.938Z,100.0
2019-02-23T02:39:14.654Z,100.0
2019-02-23T02:40:15.360Z,100.0
2019-02-23T02:41:16.075Z,100.0
2019-02-23T02:42:16.777Z,100.0
2019-02-23T02:43:17.506Z,100.0
2019-02-23T02:44:18.221Z,100.0
2019-02-23T02:45:18.934Z,100.0
2019-02-23T02:46:19.635Z,100.0
2019-02-23T02:47:20.352Z,100.0
2019-02-23T02:48:21.077Z,100.0
2019-02-23T02:49:22.044Z,100.0
2019-02-23T02:50:24.599Z,100.0
2019-02-23T02:51:23.455Z,100.0
2019-02-23T02:52:24.163Z,100.0
2019-02-23T02:53:24.872Z,100.0
2019-02-23T02:54:25.614Z,100.0
2019-02-23T02:55:26.374Z,100.0
2019-02-23T02:56:27.076Z,100.0
2019-02-23T02:57:27.784Z,100.0
2019-02-23T02:58:28.504Z,100.0
2019-02-23T02:59:29.206Z,100.0
2019-02-23T03:00:30.164Z,100.0
2019-02-23T03:01:30.876Z,100.0
2019-02-23T03:02:31.593Z,100.0
2019-02-23T03:03:32.556Z,100.0
2019-02-23T03:04:33.266Z,100.0
2019-02-23T03:05:33.979Z,100.0
2019-02-23T03:06:34.691Z,100.0
2019-02-23T03:07:35.502Z,100.0
2019-02-23T03:08:36.223Z,100.0
2019-02-23T03:09:36.938Z,100.0
2019-02-23T03:10:37.659Z,100.0
2019-02-23T03:11:38.371Z,100.0
2019-02-23T03:12:39.080Z,100.0
2019-02-23T03:13:39.803Z,100.0
2019-02-23T03:14:40.497Z,100.0
2019-02-23T03:15:41.211Z,100.0
2019-02-23T03:16:41.923Z,100.0
2019-02-23T03:17:42.631Z,100.0
2019-02-23T03:18:43.345Z,100.0
2019-02-23T03:19:44.051Z,100.0
2019-02-23T03:20:44.766Z,100.0
2019-02-23T03:21:45.495Z,100.0
2019-02-23T03:22:46.201Z,100.0
2019-02-23T03:23:46.912Z,100.0
2019-02-23T03:24:47.622Z,100.0
2019-02-23T03:25:48.337Z,100.0
2019-02-23T03:26:49.053Z,100.0
2019-02-23T03:27:49.758Z,100.0
2019-02-23T03:28:50.642Z,100.0
2019-02-23T03:29:51.352Z,100.0
2019-02-23T03:30:52.058Z,100.0
2019-02-23T03:31:52.772Z,100.0
2019-02-23T03:32:53.490Z,100.0
2019-02-23T03:33:54.202Z,100.0
2019-02-23T03:34:54.916Z,100.0
2019-02-23T03:35:55.632Z,100.0
2019-02-23T03:36:56.361Z,100.0
2019-02-23T03:37:57.073Z,100.0
2019-02-23T03:38:57.784Z,100.0
2019-02-23T03:39:58.510Z,100.0
2019-02-23T03:40:59.225Z,100.0
2019-02-23T03:41:59.951Z,100.0
2019-02-23T03:43:00.653Z,100.0
2019-02-23T03:44:01.364Z,100.0
2019-02-23T03:45:02.114Z,100.0
2019-02-23T03:46:02.843Z,100.0
2019-02-23T03:47:03.578Z,100.0
2019-02-23T03:48:04.285Z,100.0
2019-02-23T03:49:05.004Z,100.0
2019-02-23T03:50:05.713Z,100.0
2019-02-23T03:51:06.435Z,100.0
2019-02-23T03:52:07.274Z,100.0
2019-02-23T03:53:07.958Z,100.0
2019-02-23T03:54:08.667Z,100.0
2019-02-23T03:55:09.380Z,100.0
2019-02-23T03:56:10.081Z,100.0
2019-02-23T03:57:10.841Z,100.0
2019-02-23T03:58:11.549Z,100.0
2019-02-23T03:59:12.267Z,100.0
2019-02-23T04:00:13.214Z,100.0
2019-02-23T04:01:13.921Z,100.0
2019-02-23T04:02:14.638Z,100.0
2019-02-23T04:03:15.363Z,100.0
2019-02-23T04:04:16.079Z,100.0
2019-02-23T04:05:16.777Z,100.0
2019-02-23T04:06:17.497Z,100.0
2019-02-23T04:07:18.256Z,100.0
2019-02-23T04:08:18.968Z,100.0
2019-02-23T04:09:19.681Z,100.0
2019-02-23T04:10:20.401Z,100.0
2019-02-23T04:11:21.106Z,100.0
2019-02-23T04:12:21.816Z,100.0
2019-02-23T04:13:22.524Z,100.0
2019-02-23T04:14:23.232Z,100.0
2019-02-23T04:15:23.949Z,100.0
2019-02-23T04:16:24.663Z,100.0
2019-02-23T04:17:25.408Z,100.0
2019-02-23T04:18:26.155Z,100.0
2019-02-23T04:19:27.179Z,99.8
2019-02-23T04:20:28.357Z,98.1
2019-02-23T04:21:29.085Z,97.8
2019-02-23T04:22:29.982Z,98.3
2019-02-23T04:23:30.756Z,97.2
2019-02-23T04:24:31.854Z,96.6
2019-02-23T04:25:32.577Z,96.3
2019-02-23T04:26:33.386Z,96.3
2019-02-23T04:27:34.089Z,94.8
2019-02-23T04:28:34.802Z,93.9
2019-02-23T04:29:35.516Z,93.5
2019-02-23T04:30:36.232Z,92.4
2019-02-23T04:31:37.041Z,90.5
2019-02-23T04:32:37.756Z,88.2
2019-02-23T04:33:38.470Z,86.2
2019-02-23T04:34:39.179Z,85.2
2019-02-23T04:35:39.878Z,85.9
2019-02-23T04:36:40.695Z,84.8
2019-02-23T04:37:41.426Z,84.7
2019-02-23T04:38:42.132Z,84.9
2019-02-23T04:39:42.833Z,84.7
2019-02-23T04:40:43.555Z,84.7
2019-02-23T04:41:44.316Z,84.2
2019-02-23T04:42:45.030Z,84.3
2019-02-23T04:43:45.990Z,83.8
2019-02-23T04:44:46.695Z,83.3
2019-02-23T04:45:47.404Z,82.5
2019-02-23T04:46:48.142Z,81.7
2019-02-23T04:47:48.852Z,81.6
2019-02-23T04:48:49.553Z,81.5
2019-02-23T04:49:50.272Z,80.8
2019-02-23T04:50:50.962Z,80.9
2019-02-23T04:51:51.663Z,80.7
2019-02-23T04:52:52.540Z,80.6
2019-02-23T04:53:53.277Z,79.8
2019-02-23T04:54:54.794Z,79.8
2019-02-23T04:55:55.610Z,78.8
2019-02-23T04:56:56.390Z,78.3
2019-02-23T04:57:57.115Z,78.0
2019-02-23T04:58:57.973Z,76.1
2019-02-23T04:59:59.864Z,75.1
2019-02-23T05:01:00.599Z,74.8
2019-02-23T05:02:01.324Z,75.3
2019-02-23T05:03:02.036Z,75.0
2019-02-23T05:04:02.747Z,75.9
2019-02-23T05:05:03.458Z,76.2
2019-02-23T05:06:04.172Z,73.9
2019-02-23T05:07:05.161Z,74.9
2019-02-23T05:08:05.874Z,74.2
2019-02-23T05:09:06.581Z,73.9
2019-02-23T05:10:07.296Z,74.3
2019-02-23T05:11:08.011Z,72.9
2019-02-23T05:12:08.730Z,71.7
2019-02-23T05:13:09.437Z,72.2
2019-02-23T05:14:10.146Z,70.5
2019-02-23T05:15:10.853Z,69.7
2019-02-23T05:16:11.568Z,70.6
2019-02-23T05:17:12.278Z,71.5
2019-02-23T05:18:12.996Z,72.1
2019-02-23T05:19:13.709Z,72.1
2019-02-23T05:20:14.414Z,72.3
2019-02-23T05:21:25.982Z,71.6
2019-02-23T05:22:15.844Z,70.1
2019-02-23T05:23:16.550Z,70.1
2019-02-23T05:24:17.270Z,69.6
2019-02-23T05:25:17.991Z,68.2
2019-02-23T05:26:18.693Z,66.3
2019-02-23T05:27:19.471Z,66.0
2019-02-23T05:28:20.183Z,67.2
2019-02-23T05:29:20.886Z,66.9
2019-02-23T05:30:21.598Z,67.5
2019-02-23T05:31:22.430Z,67.8
2019-02-23T05:32:22.996Z,66.9
2019-02-23T05:33:23.852Z,67.0
2019-02-23T05:34:24.556Z,66.5
2019-02-23T05:35:25.264Z,66.8
2019-02-23T05:36:25.970Z,66.3
2019-02-23T05:37:26.687Z,66.2
2019-02-23T05:38:27.495Z,65.6
2019-02-23T05:39:28.203Z,64.6
2019-02-23T05:40:28.906Z,64.7
2019-02-23T05:41:29.620Z,65.0
2019-02-23T05:42:30.348Z,64.6
2019-02-23T05:43:31.105Z,64.6
2019-02-23T05:44:31.828Z,63.2
2019-02-23T05:45:32.542Z,60.5
2019-02-23T05:46:33.251Z,60.6
2019-02-23T05:47:33.961Z,60.3
2019-02-23T05:48:34.667Z,59.7
2019-02-23T05:49:37.028Z,59.6
2019-02-23T05:50:36.095Z,59.4
2019-02-23T05:51:39.012Z,59.4
2019-02-23T05:52:37.524Z,58.8
2019-02-23T05:53:38.247Z,58.2
2019-02-23T05:54:38.961Z,58.4
2019-02-23T05:55:39.727Z,58.2
2019-02-23T05:56:40.445Z,57.8
2019-02-23T05:57:41.170Z,57.0
2019-02-23T05:58:41.872Z,56.6
2019-02-23T05:59:42.582Z,55.4
2019-02-23T06:00:43.293Z,54.5
2019-02-23T06:01:44.006Z,53.8
2019-02-23T06:02:45.265Z,53.6
2019-02-23T06:03:45.437Z,53.4
2019-02-23T06:04:46.159Z,53.3
2019-02-23T06:05:46.866Z,53.6
2019-02-23T06:06:47.582Z,53.3
2019-02-23T06:07:48.307Z,52.7
2019-02-23T06:08:49.010Z,52.9
2019-02-23T06:09:49.707Z,52.1
2019-02-23T06:10:50.439Z,52.2
2019-02-23T06:11:51.148Z,52.9
2019-02-23T06:12:51.868Z,51.8
2019-02-23T06:13:52.590Z,51.6
2019-02-23T06:14:53.300Z,50.7
2019-02-23T06:15:54.019Z,50.3
2019-02-23T06:16:54.716Z,49.7
2019-02-23T06:17:55.436Z,49.1
2019-02-23T06:18:56.145Z,49.2
2019-02-23T06:19:56.865Z,49.5
2019-02-23T06:20:57.577Z,48.7
2019-02-23T06:21:58.287Z,48.3
2019-02-23T06:22:59.019Z,47.7
2019-02-23T06:23:59.731Z,47.4
2019-02-23T06:25:00.438Z,47.7
2019-02-23T06:26:01.151Z,48.0
2019-02-23T06:27:01.869Z,46.9
2019-02-23T06:28:02.833Z,46.8
2019-02-23T06:29:03.556Z,46.6
2019-02-23T06:30:04.312Z,46.4
2019-02-23T06:31:05.031Z,46.0
2019-02-23T06:32:05.743Z,45.7
2019-02-23T06:33:06.464Z,45.7
2019-02-23T06:34:15.544Z,45.4
2019-02-23T06:35:07.893Z,45.0
2019-02-23T06:36:08.624Z,43.8
2019-02-23T06:37:09.347Z,43.1
2019-02-23T06:38:10.064Z,42.9
2019-02-23T06:39:10.793Z,43.2
2019-02-23T06:40:11.509Z,43.4
2019-02-23T06:41:12.231Z,42.9
2019-02-23T06:42:13.208Z,42.1
2019-02-23T06:43:13.919Z,41.6
2019-02-23T06:44:14.626Z,41.8
2019-02-23T06:45:15.338Z,41.9
2019-02-23T06:46:16.295Z,42.7
2019-02-23T06:47:17.054Z,43.2
2019-02-23T06:48:19.848Z,43.6
2019-02-23T06:49:18.478Z,43.8
2019-02-23T06:50:19.195Z,43.2
2019-02-23T06:51:19.909Z,43.6
2019-02-23T06:52:20.619Z,43.5
2019-02-23T06:53:21.345Z,43.3
2019-02-23T06:54:22.312Z,43.7
2019-02-23T06:55:23.022Z,42.6
2019-02-23T06:56:23.748Z,42.7
2019-02-23T06:57:24.465Z,43.3
2019-02-23T06:58:25.177Z,43.5
2019-02-23T06:59:25.896Z,44.0
2019-02-23T07:00:26.613Z,44.3
2019-02-23T07:01:27.353Z,45.0
2019-02-23T07:02:28.068Z,45.2
2019-02-23T07:03:28.783Z,45.7
2019-02-23T07:04:29.604Z,46.5
2019-02-23T07:05:30.320Z,46.5
2019-02-23T07:06:31.289Z,46.5
2019-02-23T07:07:32.014Z,46.6
2019-02-23T07:08:32.756Z,47.3
2019-02-23T07:09:33.486Z,48.0
2019-02-23T07:10:34.197Z,48.8
2019-02-23T07:11:35.360Z,49.0
2019-02-23T07:12:36.072Z,49.9
2019-02-23T07:13:36.780Z,50.2
2019-02-23T07:14:37.546Z,50.7
2019-02-23T07:15:38.259Z,51.5
2019-02-23T07:16:38.986Z,52.9
2019-02-23T07:17:39.694Z,54.4
2019-02-23T07:18:40.428Z,56.3
2019-02-23T07:19:42.030Z,58.5
2019-02-23T07:20:44.496Z,61.2
2019-02-23T07:21:43.569Z,64.0
2019-02-23T07:22:44.289Z,67.4
2019-02-23T07:23:45.253Z,69.6
2019-02-23T07:24:46.238Z,71.2
2019-02-23T07:25:46.947Z,73.8
2019-02-23T07:26:47.685Z,75.9
2019-02-23T07:27:48.683Z,80.7
2019-02-23T07:28:49.389Z,80.9
2019-02-23T07:29:50.103Z,83.1
2019-02-23T07:30:50.866Z,84.9
2019-02-23T07:31:51.579Z,95.1
2019-02-23T07:32:52.322Z,100.0
2019-02-23T07:33:53.038Z,100.0
2019-02-23T07:34:53.748Z,100.0
2019-02-23T07:35:54.466Z,100.0
2019-02-23T07:36:55.176Z,100.0
2019-02-23T07:37:55.900Z,100.0
2019-02-23T07:38:56.616Z,100.0
2019-02-23T07:39:57.318Z,100.0
2019-02-23T07:40:58.299Z,100.0
2019-02-23T07:41:59.261Z,100.0
2019-02-23T07:42:59.979Z,100.0
2019-02-23T07:44:03.323Z,100.0
2019-02-23T07:45:01.423Z,100.0
2019-02-23T07:46:02.126Z,100.0
2019-02-23T07:47:02.860Z,100.0
2019-02-23T07:48:03.577Z,100.0
2019-02-23T07:49:04.297Z,100.0
2019-02-23T07:50:05.022Z,100.0
2019-02-23T07:51:05.732Z,100.0
2019-02-23T07:52:06.467Z,100.0
2019-02-23T07:53:07.181Z,100.0
2019-02-23T07:54:07.890Z,100.0
2019-02-23T07:55:08.611Z,100.0
2019-02-23T07:56:09.329Z,100.0
2019-02-23T07:57:10.056Z,100.0
2019-02-23T07:58:10.768Z,100.0
2019-02-23T07:59:11.548Z,100.0
2019-02-23T08:00:12.279Z,100.0
2019-02-23T08:01:13.000Z,100.0
2019-02-23T08:02:13.724Z,100.0
2019-02-23T08:03:14.445Z,100.0
2019-02-23T08:04:15.149Z,100.0
2019-02-23T08:05:15.869Z,100.0
2019-02-23T08:06:16.590Z,100.0
2019-02-23T08:07:17.298Z,100.0
2019-02-23T08:08:18.013Z,100.0
2019-02-23T08:09:18.723Z,100.0
2019-02-23T08:10:19.447Z,100.0
2019-02-23T08:11:20.159Z,100.0
2019-02-23T08:12:20.879Z,100.0
2019-02-23T08:13:21.600Z,100.0
2019-02-23T08:14:22.401Z,100.0
2019-02-23T08:15:23.033Z,100.0
2019-02-23T08:16:23.755Z,100.0
2019-02-23T08:17:24.480Z,100.0
2019-02-23T08:18:25.187Z,100.0
2019-02-23T08:19:25.908Z,100.0
2019-02-23T08:20:26.673Z,100.0
2019-02-23T08:21:27.399Z,100.0
2019-02-23T08:22:37.044Z,100.0
2019-02-23T08:23:28.846Z,100.0
2019-02-23T08:24:29.561Z,100.0
2019-02-23T08:25:30.275Z,100.0
2019-02-23T08:26:30.990Z,100.0
2019-02-23T08:27:31.703Z,100.0
2019-02-23T08:28:32.419Z,100.0
2019-02-23T08:29:33.136Z,100.0
2019-02-23T08:30:33.845Z,100.0
2019-02-23T08:31:34.558Z,100.0
2019-02-23T08:32:35.274Z,100.0
2019-02-23T08:33:35.982Z,100.0
2019-02-23T08:34:36.706Z,100.0
2019-02-23T08:35:37.430Z,100.0
2019-02-23T08:36:38.143Z,100.0
2019-02-23T08:37:38.877Z,100.0
2019-02-23T08:38:39.628Z,100.0
2019-02-23T08:39:40.346Z,100.0
2019-02-23T08:40:41.064Z,100.0
2019-02-23T08:41:43.333Z,100.0
2019-02-23T08:42:42.501Z,100.0
2019-02-23T08:43:43.313Z,100.0
2019-02-23T08:44:44.024Z,100.0
2019-02-23T08:45:44.734Z,100.0
2019-02-23T08:46:45.591Z,100.0
2019-02-23T08:47:46.188Z,100.0
2019-02-23T08:48:47.076Z,100.0
2019-02-23T08:49:47.622Z,100.0
2019-02-23T08:50:48.337Z,100.0
2019-02-23T08:51:49.052Z,100.0
2019-02-23T08:52:50.420Z,100.0
2019-02-23T08:53:50.482Z,100.0
2019-02-23T08:54:51.207Z,100.0
2019-02-23T08:55:51.930Z,100.0
2019-02-23T08:56:55.118Z,100.0
2019-02-23T08:57:53.373Z,100.0
2019-02-23T08:58:54.087Z,100.0
2019-02-23T08:59:54.805Z,100.0
2019-02-23T09:00:55.527Z,100.0
2019-02-23T09:01:56.250Z,100.0
2019-02-23T09:02:56.960Z,100.0
2019-02-23T09:03:57.690Z,100.0
2019-02-23T09:04:58.408Z,100.0
2019-02-23T09:05:59.172Z,100.0
2019-02-23T09:06:59.902Z,100.0
2019-02-23T09:08:00.630Z,100.0
2019-02-23T09:09:01.366Z,100.0
2019-02-23T09:10:02.073Z,100.0
2019-02-23T09:11:02.786Z,100.0
2019-02-23T09:12:03.508Z,94.9
2019-02-23T09:13:04.228Z,95.0
2019-02-23T09:14:04.960Z,94.1
2019-02-23T09:15:05.675Z,93.6
2019-02-23T09:16:06.401Z,92.6
2019-02-23T09:17:07.125Z,93.7
2019-02-23T09:18:07.843Z,92.9
2019-02-23T09:19:08.558Z,92.9
2019-02-23T09:20:09.285Z,91.3
2019-02-23T09:21:10.003Z,90.2
2019-02-23T09:22:10.757Z,88.7
2019-02-23T09:23:11.477Z,89.6
2019-02-23T09:24:12.198Z,89.9
2019-02-23T09:25:12.917Z,91.8
2019-02-23T09:26:13.628Z,89.2
2019-02-23T09:27:14.351Z,89.3
2019-02-23T09:28:15.073Z,89.8
2019-02-23T09:29:15.786Z,88.7
2019-02-23T09:30:16.504Z,88.3
2019-02-23T09:31:17.228Z,86.5
2019-02-23T09:32:17.957Z,84.8
2019-02-23T09:33:18.761Z,84.9
2019-02-23T09:34:19.486Z,86.2
2019-02-23T09:35:20.211Z,85.7
2019-02-23T09:36:20.938Z,86.4
2019-02-23T09:37:21.650Z,85.8
2019-02-23T09:38:22.382Z,85.7
2019-02-23T09:39:23.090Z,85.0
2019-02-23T09:40:23.815Z,83.9
2019-02-23T09:41:24.573Z,82.6
2019-02-23T09:42:25.292Z,81.1
2019-02-23T09:43:26.022Z,79.9
2019-02-23T09:44:26.746Z,80.7
2019-02-23T09:45:27.468Z,78.3
2019-02-23T09:46:28.187Z,77.9
2019-02-23T09:47:28.924Z,78.0
2019-02-23T09:48:29.898Z,79.6
2019-02-23T09:49:30.604Z,77.8
2019-02-23T09:50:31.343Z,76.0
2019-02-23T09:51:32.085Z,76.3
2019-02-23T09:52:32.806Z,78.1
2019-02-23T09:53:33.519Z,75.8
2019-02-23T09:54:34.243Z,75.9
2019-02-23T09:55:34.987Z,75.3
2019-02-23T09:56:35.703Z,76.3
2019-02-23T09:57:36.664Z,78.5
2019-02-23T09:58:37.390Z,79.1
2019-02-23T09:59:40.010Z,78.1
2019-02-23T10:00:38.848Z,76.9
2019-02-23T10:01:39.573Z,77.0
2019-02-23T10:02:40.287Z,76.6
2019-02-23T10:03:41.018Z,75.9
2019-02-23T10:04:41.738Z,74.7
2019-02-23T10:05:42.514Z,73.5
2019-02-23T10:06:43.226Z,74.9
2019-02-23T10:07:43.952Z,74.4
2019-02-23T10:08:44.668Z,74.2
2019-02-23T10:09:45.402Z,74.0
2019-02-23T10:10:46.163Z,72.2
2019-02-23T10:11:46.897Z,72.3
2019-02-23T10:12:47.619Z,72.4
2019-02-23T10:13:48.336Z,71.5
2019-02-23T10:14:49.064Z,70.5
2019-02-23T10:15:49.784Z,71.6
2019-02-23T10:16:50.506Z,73.0
2019-02-23T10:17:51.235Z,73.6
2019-02-23T10:18:51.954Z,73.3
2019-02-23T10:19:52.686Z,71.9
2019-02-23T10:20:53.398Z,70.9
2019-02-23T10:21:54.123Z,71.5
2019-02-23T10:22:55.023Z,70.2
2019-02-23T10:23:55.674Z,69.6
2019-02-23T10:24:56.395Z,68.8
2019-02-23T10:25:57.114Z,69.6
2019-02-23T10:26:57.841Z,70.6
2019-02-23T10:27:59.366Z,71.2
2019-02-23T10:28:59.587Z,68.6
2019-02-23T10:30:00.370Z,67.8
2019-02-23T10:31:01.036Z,67.7
2019-02-23T10:32:01.772Z,68.2
2019-02-23T10:33:02.803Z,67.6
2019-02-23T10:34:03.558Z,66.9
2019-02-23T10:35:04.288Z,67.3
2019-02-23T10:36:05.034Z,67.2
2019-02-23T10:37:05.750Z,67.5
2019-02-23T10:38:06.513Z,65.0
2019-02-23T10:39:07.240Z,64.9
2019-02-23T10:40:08.259Z,66.1
2019-02-23T10:41:08.978Z,66.1
2019-02-23T10:42:09.704Z,63.2
2019-02-23T10:43:10.424Z,63.3
2019-02-23T10:44:11.144Z,63.1
2019-02-23T10:45:11.876Z,62.7
2019-02-23T10:46:12.598Z,62.1
2019-02-23T10:47:13.319Z,62.4
2019-02-23T10:48:14.046Z,62.0
2019-02-23T10:49:14.767Z,61.9
2019-02-23T10:50:15.493Z,62.0
2019-02-23T10:51:16.272Z,59.2
2019-02-23T10:52:16.988Z,60.6
2019-02-23T10:53:17.707Z,60.2
2019-02-23T10:54:18.440Z,61.4
2019-02-23T10:55:19.161Z,60.4
2019-02-23T10:56:19.886Z,60.4
2019-02-23T10:57:20.610Z,59.1
2019-02-23T10:58:21.400Z,58.4
2019-02-23T10:59:22.111Z,58.5
2019-02-23T11:00:22.864Z,60.0
2019-02-23T11:01:23.593Z,62.1
2019-02-23T11:02:24.326Z,61.5
2019-02-23T11:03:25.034Z,62.2
2019-02-23T11:04:25.752Z,62.0
2019-02-23T11:05:26.487Z,61.9
2019-02-23T11:06:27.219Z,60.9
2019-02-23T11:07:27.938Z,60.9
2019-02-23T11:08:28.657Z,60.2
2019-02-23T11:09:29.379Z,60.7
2019-02-23T11:10:30.107Z,60.0
2019-02-23T11:11:30.827Z,60.9
2019-02-23T11:12:31.798Z,60.7
2019-02-23T11:13:32.529Z,60.8
2019-02-23T11:14:33.555Z,60.7
2019-02-23T11:15:34.300Z,61.1
2019-02-23T11:16:35.002Z,59.9
2019-02-23T11:17:35.719Z,59.4
2019-02-23T11:18:36.457Z,59.5
2019-02-23T11:19:37.325Z,59.9
2019-02-23T11:20:38.051Z,60.4
2019-02-23T11:21:38.776Z,59.5
2019-02-23T11:22:39.850Z,58.4
2019-02-23T11:23:44.134Z,58.0
2019-02-23T11:24:41.894Z,58.7
2019-02-23T11:25:42.614Z,58.5
2019-02-23T11:26:43.342Z,58.1
2019-02-23T11:27:44.430Z,58.0
2019-02-23T11:28:45.167Z,57.2
2019-02-23T11:29:45.880Z,56.4
2019-02-23T11:30:46.593Z,56.1
2019-02-23T11:31:47.324Z,55.2
2019-02-23T11:32:48.049Z,55.2
2019-02-23T11:33:48.766Z,54.9
2019-02-23T11:34:49.504Z,54.8
2019-02-23T11:35:50.222Z,55.0
2019-02-23T11:36:50.953Z,54.4
2019-02-23T11:37:51.683Z,55.1
2019-02-23T11:38:52.416Z,54.7
2019-02-23T11:39:53.137Z,53.7
2019-02-23T11:40:53.866Z,53.3
2019-02-23T11:41:54.586Z,53.7
2019-02-23T11:42:55.312Z,54.3
2019-02-23T11:43:56.038Z,54.6
2019-02-23T11:44:57.012Z,53.6
2019-02-23T11:45:57.782Z,52.3
2019-02-23T11:47:00.318Z,52.2
2019-02-23T11:48:00.177Z,53.4
2019-02-23T11:49:00.899Z,52.8
2019-02-23T11:50:01.620Z,53.9
2019-02-23T11:51:02.326Z,53.0
2019-02-23T11:52:03.044Z,53.7
2019-02-23T11:53:03.781Z,53.7
2019-02-23T11:54:04.510Z,52.8
2019-02-23T11:55:05.233Z,52.3
2019-02-23T11:56:05.955Z,53.6
2019-02-23T11:57:06.682Z,52.8
2019-02-23T11:58:07.548Z,52.4
2019-02-23T11:59:08.264Z,52.6
2019-02-23T12:00:09.060Z,52.5
2019-02-23T12:01:09.789Z,53.7
2019-02-23T12:02:10.526Z,52.7
2019-02-23T12:03:11.309Z,52.2
2019-02-23T12:04:12.038Z,52.2
2019-02-23T12:05:12.761Z,52.6
2019-02-23T12:06:13.491Z,52.1
2019-02-23T12:07:14.236Z,50.7
2019-02-23T12:08:14.969Z,51.2
2019-02-23T12:09:15.700Z,50.9
2019-02-23T12:10:16.431Z,51.5
2019-02-23T12:11:17.150Z,51.0
2019-02-23T12:12:18.152Z,52.0
2019-02-23T12:13:18.865Z,52.3
2019-02-23T12:14:19.593Z,50.6
2019-02-23T12:15:20.318Z,50.6
2019-02-23T12:16:21.049Z,50.9
2019-02-23T12:17:21.772Z,51.0
2019-02-23T12:18:22.500Z,51.5
2019-02-23T12:19:23.283Z,49.0
2019-02-23T12:20:24.021Z,49.3
2019-02-23T12:21:24.763Z,50.0
2019-02-23T12:22:25.485Z,51.1
2019-02-23T12:23:26.214Z,52.2
2019-02-23T12:24:26.945Z,52.1
2019-02-23T12:25:27.774Z,51.3
2019-02-23T12:26:28.505Z,50.0
2019-02-23T12:27:29.238Z,50.6
2019-02-23T12:28:29.962Z,50.0
2019-02-23T12:29:30.686Z,50.0
2019-02-23T12:30:32.808Z,49.3
2019-02-23T12:31:32.179Z,49.6
2019-02-23T12:32:32.915Z,48.9
2019-02-23T12:33:33.641Z,49.5
2019-02-23T12:34:34.377Z,49.4
2019-02-23T12:35:35.114Z,49.1
2019-02-23T12:36:35.852Z,49.0
2019-02-23T12:37:36.580Z,48.3
2019-02-23T12:38:37.309Z,48.7
2019-02-23T12:39:38.038Z,47.6
2019-02-23T12:40:38.762Z,48.0
2019-02-23T12:41:39.503Z,48.7
2019-02-23T12:42:40.279Z,48.4
2019-02-23T12:43:41.027Z,48.1
2019-02-23T12:44:41.759Z,48.5
2019-02-23T12:45:42.478Z,47.2
2019-02-23T12:46:43.204Z,47.1
2019-02-23T12:47:43.938Z,48.0
2019-02-23T12:48:44.655Z,48.2
2019-02-23T12:49:45.638Z,49.0
2019-02-23T12:50:46.366Z,49.9
2019-02-23T12:51:47.101Z,49.9
2019-02-23T12:52:47.820Z,49.5
2019-02-23T12:53:48.547Z,50.9
2019-02-23T12:54:49.274Z,50.9
2019-02-23T12:55:50.015Z,50.9
2019-02-23T12:56:50.747Z,51.2
2019-02-23T12:57:51.723Z,51.3
2019-02-23T12:58:52.447Z,51.3
2019-02-23T12:59:53.183Z,51.3
2019-02-23T13:00:53.916Z,50.7
2019-02-23T13:01:54.636Z,51.0
2019-02-23T13:02:55.381Z,51.3
2019-02-23T13:03:56.110Z,49.9
2019-02-23T13:04:56.843Z,50.2
2019-02-23T13:05:57.580Z,50.5
2019-02-23T13:06:58.309Z,51.0
2019-02-23T13:07:59.039Z,50.7
2019-02-23T13:08:59.776Z,49.9
2019-02-23T13:10:00.503Z,49.4
2019-02-23T13:11:01.479Z,47.2
2019-02-23T13:12:02.206Z,45.7
2019-02-23T13:13:02.949Z,45.8
2019-02-23T13:14:03.669Z,46.2
2019-02-23T13:15:04.408Z,47.1
2019-02-23T13:16:05.142Z,46.3
2019-02-23T13:17:05.875Z,47.0
2019-02-23T13:18:06.652Z,46.8
2019-02-23T13:19:07.370Z,46.8
2019-02-23T13:20:08.096Z,46.8